Time;durP1;ratioP1;P1;durP2;ratioP2;P2;SDS_P1;SDS_P2;PMS_P1;PMS_P2;Temp;Humidity;BMP_temperature;BMP_pressure;BME280_temperature;BME280_humidity;BME280_pressure;Samples;Min_cycle;Max_cycle;Signal;HPM_P1;HPM_P2
2024/01/04 00:00:39;;;;;;;0.83;0.10;;;;;;;;;;4971092;28;20221;-68
2024/01/04 00:03:06;;;;;;;0.10;0.10;;;;;;;;;;4970198;28;20211;-68
2024/01/04 00:05:33;;;;;;;0.20;0.10;;;;;;;;;;4969815;28;20214;-68
2024/01/04 00:08:01;;;;;;;0.10;0.10;;;;;;;;;;4969901;28;20628;-69
2024/01/04 00:10:28;;;;;;;0.20;0.20;;;;;;;;;;4970523;28;20210;-68
2024/01/04 00:12:55;;;;;;;0.20;0.20;;;;;;;;;;4969927;28;20230;-68
2024/01/04 00:15:22;;;;;;;0.60;0.10;;;;;;;;;;4969955;28;20203;-68
2024/01/04 00:17:49;;;;;;;0.47;0.10;;;;;;;;;;4970084;28;20210;-68
2024/01/04 00:20:16;;;;;;;0.10;0.10;;;;;;;;;;4969517;28;20233;-68
2024/01/04 00:22:43;;;;;;;0.10;0.10;;;;;;;;;;4968680;28;20280;-68
2024/01/04 00:25:12;;;;;;;0.23;0.10;;;;;;;;;;4967762;28;20379;-69
2024/01/04 00:27:39;;;;;;;0.50;0.10;;;;;;;;;;4969835;28;20198;-69
2024/01/04 00:30:06;;;;;;;1.07;0.10;;;;;;;;;;4969523;28;20206;-68
2024/01/04 00:32:33;;;;;;;0.60;0.20;;;;;;;;;;4969252;28;20226;-68
2024/01/04 00:35:00;;;;;;;0.20;0.20;;;;;;;;;;4969769;28;20706;-68
2024/01/04 00:37:27;;;;;;;0.13;0.13;;;;;;;;;;4970312;28;20210;-68
2024/01/04 00:39:54;;;;;;;0.00;0.00;;;;;;;;;;4969647;28;20311;-68
2024/01/04 00:42:23;;;;;;;0.17;0.17;;;;;;;;;;4969784;28;20237;-68
2024/01/04 00:44:50;;;;;;;0.00;0.00;;;;;;;;;;4970071;28;20284;-68
2024/01/04 00:47:17;;;;;;;0.00;0.00;;;;;;;;;;4969639;28;20241;-68
2024/01/04 00:49:44;;;;;;;0.00;0.00;;;;;;;;;;4969394;28;20639;-68
2024/01/04 00:52:11;;;;;;;0.00;0.00;;;;;;;;;;4969736;28;20594;-68
2024/01/04 00:54:38;;;;;;;0.83;0.30;;;;;;;;;;4969626;28;20209;-68
2024/01/04 00:57:05;;;;;;;0.63;0.10;;;;;;;;;;4969243;28;20207;-69
2024/01/04 00:59:34;;;;;;;0.00;0.00;;;;;;;;;;4969128;28;20293;-69
2024/01/04 01:02:01;;;;;;;0.20;0.10;;;;;;;;;;4969374;28;20724;-68
2024/01/04 01:04:28;;;;;;;0.17;0.00;;;;;;;;;;4968260;28;20210;-68
2024/01/04 01:06:55;;;;;;;1.40;0.03;;;;;;;;;;4968859;28;20210;-68
2024/01/04 01:09:22;;;;;;;0.10;0.10;;;;;;;;;;4966204;28;20626;-68
2024/01/04 01:11:49;;;;;;;0.10;0.10;;;;;;;;;;4964897;28;20230;-68
2024/01/04 01:14:16;;;;;;;0.10;0.10;;;;;;;;;;4969099;28;20218;-69
2024/01/04 01:16:44;;;;;;;0.00;0.00;;;;;;;;;;4968557;28;20210;-68
2024/01/04 01:19:11;;;;;;;0.00;0.00;;;;;;;;;;4968335;28;20273;-68
2024/01/04 01:21:39;;;;;;;0.10;0.10;;;;;;;;;;4968422;28;20226;-68
2024/01/04 01:24:06;;;;;;;0.10;0.10;;;;;;;;;;4968345;28;20238;-67
2024/01/04 01:26:33;;;;;;;0.20;0.10;;;;;;;;;;4968556;28;20214;-67
2024/01/04 01:29:00;;;;;;;0.10;0.10;;;;;;;;;;4967016;28;20205;-68
2024/01/04 01:31:27;;;;;;;0.00;0.00;;;;;;;;;;4967711;28;20245;-68
2024/01/04 01:33:57;;;;;;;0.10;0.10;;;;;;;;;;4951668;28;20206;-68
2024/01/04 01:36:24;;;;;;;0.00;0.00;;;;;;;;;;4968452;28;20216;-67
2024/01/04 01:38:51;;;;;;;0.43;0.20;;;;;;;;;;4967589;28;20237;-67
2024/01/04 01:41:18;;;;;;;0.10;0.10;;;;;;;;;;4967947;28;20210;-67
2024/01/04 01:43:45;;;;;;;0.00;0.00;;;;;;;;;;4968406;28;20580;-68
2024/01/04 01:46:12;;;;;;;1.60;0.20;;;;;;;;;;4968442;28;20207;-68
2024/01/04 01:48:39;;;;;;;2.53;0.20;;;;;;;;;;4968155;28;20210;-67
2024/01/04 01:51:08;;;;;;;0.00;0.00;;;;;;;;;;4967957;28;20635;-67
2024/01/04 01:53:35;;;;;;;0.10;0.00;;;;;;;;;;4951563;28;20300;-67
2024/01/04 01:56:03;;;;;;;1.17;0.10;;;;;;;;;;4967317;28;20245;-67
2024/01/04 01:58:30;;;;;;;1.07;0.20;;;;;;;;;;4975024;28;20328;-68
2024/01/04 02:00:57;;;;;;;1.17;0.10;;;;;;;;;;4982146;28;20218;-68
2024/01/04 02:03:24;;;;;;;0.57;0.13;;;;;;;;;;4979278;28;20248;-67
2024/01/04 02:05:51;;;;;;;0.43;0.30;;;;;;;;;;4984926;28;20205;-68
2024/01/04 02:08:20;;;;;;;1.10;0.20;;;;;;;;;;4986501;28;20217;-68
2024/01/04 02:10:47;;;;;;;0.20;0.10;;;;;;;;;;4981269;28;20201;-67
2024/01/04 02:13:14;;;;;;;2.67;0.10;;;;;;;;;;4984156;28;20237;-68
2024/01/04 02:15:42;;;;;;;0.00;0.00;;;;;;;;;;4987991;28;20201;-68
2024/01/04 02:18:09;;;;;;;0.43;0.20;;;;;;;;;;4982962;28;20451;-68
2024/01/04 02:20:36;;;;;;;0.00;0.00;;;;;;;;;;4983915;28;20210;-67
2024/01/04 02:23:05;;;;;;;0.17;0.17;;;;;;;;;;4981693;28;20194;-68
2024/01/04 02:25:34;;;;;;;0.30;0.10;;;;;;;;;;4987930;28;20241;-68
2024/01/04 02:28:01;;;;;;;0.10;0.10;;;;;;;;;;4980936;28;20294;-68
2024/01/04 02:30:28;;;;;;;0.10;0.10;;;;;;;;;;4982762;28;20205;-68
2024/01/04 02:32:55;;;;;;;0.10;0.10;;;;;;;;;;4980322;28;20284;-68
2024/01/04 02:35:22;;;;;;;0.20;0.10;;;;;;;;;;4980624;28;20313;-67
2024/01/04 02:37:49;;;;;;;1.07;0.03;;;;;;;;;;4979069;28;20629;-68
2024/01/04 02:40:18;;;;;;;1.13;0.10;;;;;;;;;;4983561;28;20267;-67
2024/01/04 02:42:45;;;;;;;0.00;0.00;;;;;;;;;;4980102;28;20213;-67
2024/01/04 02:45:12;;;;;;;1.10;0.10;;;;;;;;;;4981504;28;20687;-67
2024/01/04 02:47:39;;;;;;;0.20;0.20;;;;;;;;;;4983468;28;20208;-67
2024/01/04 02:50:06;;;;;;;0.10;0.10;;;;;;;;;;4984570;28;20201;-68
2024/01/04 02:52:33;;;;;;;0.10;0.10;;;;;;;;;;4991463;28;20225;-68
2024/01/04 02:55:00;;;;;;;0.07;0.07;;;;;;;;;;4985938;28;20225;-68
2024/01/04 02:57:29;;;;;;;1.03;0.10;;;;;;;;;;4982114;28;20206;-68
2024/01/04 02:59:56;;;;;;;0.60;0.03;;;;;;;;;;4975675;28;20627;-68
2024/01/04 03:02:23;;;;;;;0.53;0.27;;;;;;;;;;4971628;28;20210;-68
2024/01/04 03:04:50;;;;;;;1.90;0.20;;;;;;;;;;4968851;28;20238;-68
2024/01/04 03:07:17;;;;;;;0.10;0.10;;;;;;;;;;4969883;28;20210;-68
2024/01/04 03:09:44;;;;;;;0.10;0.10;;;;;;;;;;4971576;28;20205;-68
2024/01/04 03:12:11;;;;;;;0.83;0.10;;;;;;;;;;4971471;28;20296;-68
2024/01/04 03:14:39;;;;;;;0.43;0.20;;;;;;;;;;4971261;28;20214;-68
2024/01/04 03:17:06;;;;;;;0.70;0.10;;;;;;;;;;4971506;28;20264;-68
2024/01/04 03:19:33;;;;;;;0.50;0.20;;;;;;;;;;4971385;28;20297;-68
2024/01/04 03:22:00;;;;;;;0.03;0.03;;;;;;;;;;4970804;28;20687;-67
2024/01/04 03:24:27;;;;;;;0.00;0.00;;;;;;;;;;4971161;28;20242;-68
2024/01/04 03:26:54;;;;;;;0.73;0.00;;;;;;;;;;4970933;28;20210;-68
2024/01/04 03:29:21;;;;;;;0.10;0.10;;;;;;;;;;4971161;28;20684;-68
2024/01/04 03:31:50;;;;;;;1.23;0.10;;;;;;;;;;4970709;28;20261;-68
2024/01/04 03:34:17;;;;;;;1.23;0.10;;;;;;;;;;4970907;28;20798;-68
2024/01/04 03:36:44;;;;;;;0.20;0.20;;;;;;;;;;4969348;28;20203;-68
2024/01/04 03:39:11;;;;;;;0.23;0.10;;;;;;;;;;4971321;28;20549;-68
2024/01/04 03:41:38;;;;;;;0.47;0.10;;;;;;;;;;4971009;28;20377;-68
2024/01/04 03:44:05;;;;;;;0.00;0.00;;;;;;;;;;4971262;28;20210;-68
2024/01/04 03:46:32;;;;;;;0.10;0.10;;;;;;;;;;4971245;28;20237;-68
2024/01/04 03:49:01;;;;;;;0.17;0.00;;;;;;;;;;4970942;28;20207;-68
2024/01/04 03:51:28;;;;;;;0.40;0.10;;;;;;;;;;4971437;28;20210;-68
2024/01/04 03:53:56;;;;;;;0.63;0.10;;;;;;;;;;4970939;28;20226;-69
2024/01/04 03:56:23;;;;;;;0.37;0.37;;;;;;;;;;4971403;28;20214;-68
2024/01/04 03:58:50;;;;;;;0.50;0.50;;;;;;;;;;4970851;28;20210;-68
2024/01/04 04:01:17;;;;;;;1.80;0.53;;;;;;;;;;4969846;28;20210;-68
2024/01/04 04:03:44;;;;;;;0.43;0.43;;;;;;;;;;4970940;28;20211;-68
2024/01/04 04:06:12;;;;;;;0.67;0.33;;;;;;;;;;4970868;28;20203;-68
2024/01/04 04:08:39;;;;;;;2.17;1.97;;;;;;;;;;4970489;28;20253;-68
2024/01/04 04:11:15;;;;;;;1.23;0.97;;;;;;;;;;4971010;28;20306;-68
2024/01/04 04:13:42;;;;;;;1.07;1.03;;;;;;;;;;4970566;28;20222;-69
2024/01/04 04:16:09;;;;;;;0.70;0.70;;;;;;;;;;4970930;28;20218;-68
2024/01/04 04:18:36;;;;;;;0.30;0.30;;;;;;;;;;4970498;28;20217;-68
2024/01/04 04:21:03;;;;;;;0.97;0.20;;;;;;;;;;4970423;28;20230;-68
2024/01/04 04:23:32;;;;;;;0.20;0.20;;;;;;;;;;4970442;28;20261;-69
2024/01/04 04:25:59;;;;;;;0.07;0.07;;;;;;;;;;4968544;28;20321;-69
2024/01/04 04:28:26;;;;;;;0.10;0.10;;;;;;;;;;4968189;28;20218;-68
2024/01/04 04:30:53;;;;;;;0.20;0.20;;;;;;;;;;4970693;28;20636;-68
2024/01/04 04:33:20;;;;;;;0.17;0.17;;;;;;;;;;4970372;28;20226;-68
2024/01/04 04:35:48;;;;;;;0.20;0.20;;;;;;;;;;4969919;28;20214;-68
2024/01/04 04:38:15;;;;;;;0.07;0.07;;;;;;;;;;4959789;28;20213;-68
2024/01/04 04:40:43;;;;;;;0.13;0.13;;;;;;;;;;4970606;28;20214;-68
2024/01/04 04:43:10;;;;;;;0.37;0.10;;;;;;;;;;4970292;28;20206;-68
2024/01/04 04:45:37;;;;;;;0.07;0.07;;;;;;;;;;4970332;28;20228;-69
2024/01/04 04:48:04;;;;;;;3.00;0.20;;;;;;;;;;4968265;28;20494;-69
2024/01/04 04:50:31;;;;;;;0.90;0.90;;;;;;;;;;4969630;28;20202;-69
2024/01/04 04:52:58;;;;;;;1.30;1.30;;;;;;;;;;4966959;28;20233;-68
2024/01/04 04:55:25;;;;;;;0.20;0.20;;;;;;;;;;4970144;28;20692;-68
2024/01/04 04:57:54;;;;;;;0.30;0.20;;;;;;;;;;4970190;28;20211;-68
2024/01/04 05:00:21;;;;;;;0.10;0.10;;;;;;;;;;4969174;28;20207;-67
2024/01/04 05:02:48;;;;;;;0.87;0.17;;;;;;;;;;4969290;28;20210;-67
2024/01/04 05:05:15;;;;;;;1.00;0.20;;;;;;;;;;4970040;28;20225;-68
2024/01/04 05:07:42;;;;;;;0.23;0.10;;;;;;;;;;4969655;28;20253;-68
2024/01/04 05:10:09;;;;;;;0.20;0.20;;;;;;;;;;4966107;28;20214;-67
2024/01/04 05:12:36;;;;;;;0.70;0.20;;;;;;;;;;4968660;28;20206;-67
2024/01/04 05:15:05;;;;;;;0.20;0.20;;;;;;;;;;4969311;28;20207;-68
2024/01/04 05:17:32;;;;;;;0.07;0.07;;;;;;;;;;4969365;28;20210;-68
2024/01/04 05:19:59;;;;;;;3.37;0.20;;;;;;;;;;4969302;28;21057;-68
2024/01/04 05:22:26;;;;;;;0.30;0.20;;;;;;;;;;4968338;28;20222;-68
2024/01/04 05:24:53;;;;;;;0.20;0.10;;;;;;;;;;4969339;28;20622;-68
2024/01/04 05:27:20;;;;;;;0.10;0.10;;;;;;;;;;4969349;28;20221;-68
2024/01/04 05:29:47;;;;;;;0.10;0.10;;;;;;;;;;4969159;28;20627;-68
2024/01/04 05:32:15;;;;;;;0.07;0.03;;;;;;;;;;4968673;28;20214;-67
2024/01/04 05:34:43;;;;;;;1.07;0.30;;;;;;;;;;4968193;28;20226;-68
2024/01/04 05:37:10;;;;;;;1.50;0.10;;;;;;;;;;4969379;28;20232;-67
2024/01/04 05:39:37;;;;;;;0.23;0.03;;;;;;;;;;4968765;28;20218;-67
2024/01/04 05:42:04;;;;;;;0.43;0.20;;;;;;;;;;4969515;28;20215;-68
2024/01/04 05:44:31;;;;;;;0.20;0.20;;;;;;;;;;4966966;28;20203;-68
2024/01/04 05:46:58;;;;;;;1.03;0.40;;;;;;;;;;4968844;28;20637;-68
2024/01/04 05:49:27;;;;;;;0.77;0.10;;;;;;;;;;4969113;28;20206;-67
2024/01/04 05:51:54;;;;;;;0.20;0.20;;;;;;;;;;4968271;28;20263;-68
2024/01/04 05:54:21;;;;;;;0.20;0.20;;;;;;;;;;4968614;28;20593;-67
2024/01/04 05:56:48;;;;;;;0.10;0.10;;;;;;;;;;4968863;28;20214;-67
2024/01/04 05:59:15;;;;;;;0.60;0.20;;;;;;;;;;4968623;28;20213;-68
2024/01/04 06:01:43;;;;;;;0.10;0.10;;;;;;;;;;4968894;28;20206;-68
2024/01/04 06:04:10;;;;;;;3.00;0.27;;;;;;;;;;4967995;28;20214;-68
2024/01/04 06:06:38;;;;;;;0.10;0.10;;;;;;;;;;4968795;28;20206;-67
2024/01/04 06:09:05;;;;;;;0.63;0.30;;;;;;;;;;4968536;28;20210;-67
2024/01/04 06:11:32;;;;;;;2.40;0.20;;;;;;;;;;4968741;28;20237;-68
2024/01/04 06:13:59;;;;;;;0.20;0.20;;;;;;;;;;4968601;28;20265;-68
2024/01/04 06:16:26;;;;;;;1.23;0.20;;;;;;;;;;4968082;28;20645;-67
2024/01/04 06:18:53;;;;;;;0.53;0.20;;;;;;;;;;4968260;28;20249;-67
2024/01/04 06:21:20;;;;;;;0.43;0.20;;;;;;;;;;4967905;28;20234;-67
2024/01/04 06:23:49;;;;;;;0.17;0.17;;;;;;;;;;4967989;28;20313;-67
2024/01/04 06:26:18;;;;;;;0.23;0.23;;;;;;;;;;4968449;28;20202;-68
2024/01/04 06:28:46;;;;;;;0.10;0.10;;;;;;;;;;4964379;28;20234;-67
2024/01/04 06:31:13;;;;;;;1.33;0.20;;;;;;;;;;4968366;28;20234;-67
2024/01/04 06:33:40;;;;;;;1.07;0.27;;;;;;;;;;4968544;28;20917;-68
2024/01/04 06:36:07;;;;;;;0.13;0.10;;;;;;;;;;4967887;28;20213;-68
2024/01/04 06:38:35;;;;;;;0.47;0.30;;;;;;;;;;4960616;28;21079;-68
2024/01/04 06:41:04;;;;;;;0.30;0.30;;;;;;;;;;4968108;28;20214;-67
2024/01/04 06:43:31;;;;;;;0.20;0.20;;;;;;;;;;4967906;28;20293;-67
2024/01/04 06:45:58;;;;;;;0.47;0.40;;;;;;;;;;4967637;28;20210;-67
2024/01/04 06:48:27;;;;;;;1.00;0.27;;;;;;;;;;4968082;28;20217;-67
2024/01/04 06:50:54;;;;;;;1.30;0.60;;;;;;;;;;4968147;28;20214;-67
2024/01/04 06:53:21;;;;;;;0.40;0.40;;;;;;;;;;4967223;28;20233;-67
2024/01/04 06:55:48;;;;;;;1.00;0.30;;;;;;;;;;4967941;28;20693;-67
2024/01/04 06:58:16;;;;;;;0.63;0.30;;;;;;;;;;4968111;28;20210;-67
2024/01/04 07:00:43;;;;;;;1.10;0.30;;;;;;;;;;4966888;28;20202;-67
2024/01/04 07:03:10;;;;;;;0.30;0.30;;;;;;;;;;4968197;28;20276;-67
2024/01/04 07:05:37;;;;;;;0.10;0.10;;;;;;;;;;4967336;28;20811;-67
2024/01/04 07:08:05;;;;;;;0.20;0.20;;;;;;;;;;4967856;28;20209;-67
2024/01/04 07:10:32;;;;;;;0.10;0.10;;;;;;;;;;4967799;28;20945;-67
2024/01/04 07:12:59;;;;;;;0.20;0.20;;;;;;;;;;4968142;28;20203;-67
2024/01/04 07:15:27;;;;;;;0.10;0.10;;;;;;;;;;4967426;28;20226;-67
2024/01/04 07:17:54;;;;;;;0.10;0.10;;;;;;;;;;4967315;28;20203;-67
2024/01/04 07:20:21;;;;;;;0.10;0.10;;;;;;;;;;4967603;28;20210;-67
2024/01/04 07:22:52;;;;;;;0.47;0.10;;;;;;;;;;4967661;28;20222;-67
2024/01/04 07:25:19;;;;;;;1.37;0.10;;;;;;;;;;4966274;28;20289;-67
2024/01/04 07:27:46;;;;;;;3.73;0.13;;;;;;;;;;4963785;28;20227;-67
2024/01/04 07:30:13;;;;;;;1.20;0.10;;;;;;;;;;4967738;28;20273;-67
2024/01/04 07:32:42;;;;;;;0.27;0.27;;;;;;;;;;4968277;28;20673;-67
2024/01/04 07:35:12;;;;;;;0.20;0.20;;;;;;;;;;4965950;28;20237;-67
2024/01/04 07:37:39;;;;;;;0.10;0.10;;;;;;;;;;4969160;28;20269;-67
2024/01/04 07:40:07;;;;;;;0.00;0.00;;;;;;;;;;4969493;28;20976;-67
2024/01/04 07:42:34;;;;;;;0.20;0.20;;;;;;;;;;4969981;28;20643;-65
2024/01/04 07:45:01;;;;;;;0.10;0.10;;;;;;;;;;4969863;28;20439;-66
2024/01/04 07:47:28;;;;;;;0.07;0.07;;;;;;;;;;4971480;28;20301;-67
2024/01/04 07:49:57;;;;;;;0.37;0.10;;;;;;;;;;4971150;28;20737;-68
2024/01/04 07:52:24;;;;;;;0.57;0.17;;;;;;;;;;4969691;28;20214;-68
2024/01/04 07:54:51;;;;;;;1.10;0.10;;;;;;;;;;4969349;28;20226;-68
2024/01/04 07:57:18;;;;;;;0.20;0.20;;;;;;;;;;4968870;28;20207;-68
2024/01/04 07:59:45;;;;;;;0.80;0.20;;;;;;;;;;4969517;28;20213;-68
2024/01/04 08:02:12;;;;;;;0.00;0.00;;;;;;;;;;4977112;28;20248;-68
2024/01/04 08:04:39;;;;;;;0.77;0.20;;;;;;;;;;4981842;28;20217;-69
2024/01/04 08:07:08;;;;;;;0.10;0.10;;;;;;;;;;4969227;28;20279;-69
2024/01/04 08:09:35;;;;;;;0.10;0.10;;;;;;;;;;4969304;28;20310;-69
2024/01/04 08:12:02;;;;;;;0.10;0.10;;;;;;;;;;4970583;28;20218;-68
2024/01/04 08:14:30;;;;;;;0.20;0.10;;;;;;;;;;4979293;28;20280;-68
2024/01/04 08:16:57;;;;;;;0.10;0.10;;;;;;;;;;4980477;28;20206;-68
2024/01/04 08:19:24;;;;;;;0.10;0.10;;;;;;;;;;4970463;28;21006;-68
2024/01/04 08:21:52;;;;;;;0.33;0.10;;;;;;;;;;4968058;28;20230;-68
2024/01/04 08:24:20;;;;;;;1.50;0.20;;;;;;;;;;4969916;28;20250;-68
2024/01/04 08:26:47;;;;;;;0.30;0.30;;;;;;;;;;4970274;28;20210;-68
2024/01/04 08:29:14;;;;;;;0.20;0.20;;;;;;;;;;4969983;28;20954;-69
2024/01/04 08:31:41;;;;;;;0.03;0.03;;;;;;;;;;4970436;28;20211;-68
2024/01/04 08:34:08;;;;;;;0.20;0.10;;;;;;;;;;4969721;28;20587;-67
2024/01/04 08:36:35;;;;;;;0.17;0.17;;;;;;;;;;4957889;28;20214;-68
2024/01/04 08:39:03;;;;;;;0.10;0.10;;;;;;;;;;4970397;28;20210;-68
2024/01/04 08:41:31;;;;;;;0.20;0.20;;;;;;;;;;4969970;28;20681;-68
2024/01/04 08:43:58;;;;;;;0.47;0.30;;;;;;;;;;4970374;28;20261;-68
2024/01/04 08:46:25;;;;;;;0.40;0.40;;;;;;;;;;4970141;28;20203;-69
2024/01/04 08:48:52;;;;;;;0.30;0.30;;;;;;;;;;4970141;28;20214;-68
2024/01/04 08:51:20;;;;;;;0.30;0.30;;;;;;;;;;4966324;28;20206;-68
2024/01/04 08:53:49;;;;;;;0.40;0.40;;;;;;;;;;4969407;28;20219;-68
2024/01/04 08:56:16;;;;;;;0.13;0.13;;;;;;;;;;4966208;28;20589;-68
2024/01/04 08:58:44;;;;;;;0.30;0.30;;;;;;;;;;4968189;28;20222;-68
2024/01/04 09:01:12;;;;;;;0.03;0.03;;;;;;;;;;4968998;28;20205;-68
2024/01/04 09:03:39;;;;;;;0.37;0.20;;;;;;;;;;4968866;28;20210;-68
2024/01/04 09:06:06;;;;;;;1.30;0.37;;;;;;;;;;4968946;28;20203;-68
2024/01/04 09:08:35;;;;;;;0.30;0.20;;;;;;;;;;4969671;28;20794;-69
2024/01/04 09:11:03;;;;;;;0.23;0.10;;;;;;;;;;4968794;28;20210;-67
2024/01/04 09:13:30;;;;;;;0.20;0.20;;;;;;;;;;4968362;28;20308;-67
2024/01/04 09:15:59;;;;;;;0.20;0.20;;;;;;;;;;4968774;28;20242;-66
2024/01/04 09:18:26;;;;;;;0.00;0.00;;;;;;;;;;4968959;28;20211;-70
2024/01/04 09:20:53;;;;;;;0.03;0.00;;;;;;;;;;4968021;28;20207;-67
2024/01/04 09:23:20;;;;;;;0.27;0.10;;;;;;;;;;4968075;28;20698;-67
2024/01/04 09:25:47;;;;;;;0.00;0.00;;;;;;;;;;4963154;28;20206;-66
2024/01/04 09:28:14;;;;;;;0.27;0.10;;;;;;;;;;4968835;28;20218;-67
2024/01/04 09:30:41;;;;;;;0.20;0.10;;;;;;;;;;4967639;28;20203;-73
2024/01/04 09:33:09;;;;;;;0.10;0.10;;;;;;;;;;4968488;28;20269;-66
2024/01/04 09:35:36;;;;;;;0.00;0.00;;;;;;;;;;4967967;28;20230;-66
2024/01/04 09:38:03;;;;;;;0.03;0.03;;;;;;;;;;4967921;28;20737;-69
2024/01/04 09:40:31;;;;;;;0.67;0.10;;;;;;;;;;4966180;28;20305;-69
2024/01/04 09:42:58;;;;;;;0.10;0.10;;;;;;;;;;4968373;28;20589;-65
2024/01/04 09:45:26;;;;;;;0.73;0.10;;;;;;;;;;4966799;28;20209;-66
2024/01/04 09:47:56;;;;;;;1.50;0.10;;;;;;;;;;4966776;28;20636;-66
2024/01/04 09:50:25;;;;;;;0.87;0.30;;;;;;;;;;4967284;28;20210;-68
2024/01/04 09:52:54;;;;;;;0.30;0.30;;;;;;;;;;4957789;28;20219;-67
2024/01/04 09:55:22;;;;;;;0.20;0.10;;;;;;;;;;4963989;28;20230;-68
2024/01/04 09:57:49;;;;;;;1.23;0.47;;;;;;;;;;4967757;28;20261;-68
2024/01/04 10:00:17;;;;;;;1.20;0.20;;;;;;;;;;4966956;28;20206;-68
2024/01/04 10:02:44;;;;;;;0.20;0.20;;;;;;;;;;4966649;28;20218;-68
2024/01/04 10:05:14;;;;;;;0.23;0.23;;;;;;;;;;4966641;28;20265;-68
2024/01/04 10:07:45;;;;;;;0.57;0.10;;;;;;;;;;4967568;28;20210;-68
2024/01/04 10:10:18;;;;;;;0.60;0.40;;;;;;;;;;4962640;28;20262;-68
2024/01/04 10:12:45;;;;;;;0.97;0.50;;;;;;;;;;4965500;28;20210;-68
2024/01/04 10:15:13;;;;;;;0.37;0.33;;;;;;;;;;4967319;28;20944;-68
2024/01/04 10:17:40;;;;;;;2.27;0.73;;;;;;;;;;4967481;28;20210;-68
2024/01/04 10:20:07;;;;;;;0.83;0.60;;;;;;;;;;4967285;28;20210;-68
2024/01/04 10:22:35;;;;;;;1.60;0.43;;;;;;;;;;4965674;28;20787;-68
2024/01/04 10:25:09;;;;;;;0.40;0.40;;;;;;;;;;4967269;28;20280;-68
2024/01/04 10:27:36;;;;;;;1.80;0.50;;;;;;;;;;4967562;28;20225;-68
2024/01/04 10:30:07;;;;;;;2.73;0.40;;;;;;;;;;4967026;28;20213;-68
2024/01/04 10:32:34;;;;;;;2.23;0.50;;;;;;;;;;4966578;28;20569;-68
2024/01/04 10:35:06;;;;;;;0.57;0.57;;;;;;;;;;4966739;28;20230;-68
2024/01/04 10:37:33;;;;;;;2.43;0.50;;;;;;;;;;4967411;28;20646;-68
2024/01/04 10:40:03;;;;;;;1.27;0.50;;;;;;;;;;4966694;28;20424;-68
2024/01/04 10:42:32;;;;;;;0.60;0.50;;;;;;;;;;4965970;28;20541;-68
2024/01/04 10:44:59;;;;;;;1.00;0.90;;;;;;;;;;4966056;28;20991;-68
2024/01/04 10:47:27;;;;;;;4.30;0.70;;;;;;;;;;4966616;28;20736;-68
2024/01/04 10:49:58;;;;;;;2.23;0.50;;;;;;;;;;4966922;28;20210;-68
2024/01/04 10:52:29;;;;;;;1.70;0.40;;;;;;;;;;4966957;28;20210;-68
2024/01/04 10:54:57;;;;;;;1.93;0.33;;;;;;;;;;4965078;28;20289;-68
2024/01/04 10:57:25;;;;;;;1.30;0.50;;;;;;;;;;4966831;28;20214;-68
2024/01/04 10:59:54;;;;;;;0.33;0.33;;;;;;;;;;4967033;28;20207;-68
2024/01/04 11:02:21;;;;;;;0.50;0.20;;;;;;;;;;4965975;28;20206;-74
2024/01/04 11:04:49;;;;;;;0.70;0.60;;;;;;;;;;4966780;28;20257;-68
2024/01/04 11:07:16;;;;;;;2.27;0.60;;;;;;;;;;4957219;28;20261;-68
2024/01/04 11:09:44;;;;;;;0.33;0.30;;;;;;;;;;4965167;28;20203;-66
2024/01/04 11:12:12;;;;;;;0.93;0.57;;;;;;;;;;4970115;28;20214;-68
2024/01/04 11:14:39;;;;;;;0.50;0.50;;;;;;;;;;4969414;28;20597;-67
2024/01/04 11:17:12;;;;;;;1.13;0.50;;;;;;;;;;4970453;28;20209;-67
2024/01/04 11:19:47;;;;;;;0.37;0.30;;;;;;;;;;4970700;28;20633;-67
2024/01/04 11:22:22;;;;;;;0.50;0.50;;;;;;;;;;4970050;28;20750;-67
2024/01/04 11:25:03;;;;;;;0.73;0.73;;;;;;;;;;4970374;28;20264;-67
2024/01/04 11:27:31;;;;;;;1.17;0.47;;;;;;;;;;4970465;28;20761;-67
2024/01/04 11:29:58;;;;;;;2.10;0.50;;;;;;;;;;4970487;28;20725;-67
2024/01/04 11:32:28;;;;;;;3.27;0.70;;;;;;;;;;4969815;28;20279;-67
2024/01/04 11:34:55;;;;;;;1.07;0.40;;;;;;;;;;4970032;28;20284;-67
2024/01/04 11:37:23;;;;;;;4.10;0.50;;;;;;;;;;4969989;28;20217;-67
2024/01/04 11:40:00;;;;;;;4.60;1.07;;;;;;;;;;4970269;28;20221;-67
2024/01/04 11:42:33;;;;;;;4.20;0.70;;;;;;;;;;4969590;28;20310;-68
2024/01/04 11:45:04;;;;;;;2.63;0.97;;;;;;;;;;4970048;28;20202;-68
2024/01/04 11:47:35;;;;;;;3.07;1.00;;;;;;;;;;4969797;28;20269;-67
2024/01/04 11:50:03;;;;;;;2.33;1.10;;;;;;;;;;4969466;28;20568;-68
2024/01/04 11:52:31;;;;;;;1.13;0.60;;;;;;;;;;4969331;28;20600;-68
2024/01/04 11:54:58;;;;;;;2.83;0.87;;;;;;;;;;4970361;28;20223;-67
2024/01/04 11:57:25;;;;;;;3.27;0.80;;;;;;;;;;4969782;28;20222;-67
2024/01/04 11:59:52;;;;;;;3.93;0.73;;;;;;;;;;4970093;28;20214;-68
2024/01/04 12:02:20;;;;;;;3.23;0.73;;;;;;;;;;4968833;28;20218;-68
2024/01/04 12:04:48;;;;;;;3.37;0.90;;;;;;;;;;4968396;28;20576;-67
2024/01/04 12:07:15;;;;;;;2.00;0.70;;;;;;;;;;4969439;28;20570;-67
2024/01/04 12:09:43;;;;;;;2.13;0.50;;;;;;;;;;4969838;28;20347;-67
2024/01/04 12:12:10;;;;;;;5.60;0.87;;;;;;;;;;4967564;28;20217;-68
2024/01/04 12:14:38;;;;;;;3.20;1.00;;;;;;;;;;4969570;28;20764;-69
2024/01/04 12:17:05;;;;;;;1.57;0.50;;;;;;;;;;4969295;28;20651;-66
2024/01/04 12:19:32;;;;;;;0.97;0.70;;;;;;;;;;4969027;28;20206;-68
2024/01/04 12:22:01;;;;;;;2.23;0.47;;;;;;;;;;4967904;28;20317;-67
2024/01/04 12:24:28;;;;;;;1.50;0.70;;;;;;;;;;4969120;28;20242;-67
2024/01/04 12:26:57;;;;;;;2.57;0.77;;;;;;;;;;4968876;28;20214;-67
2024/01/04 12:29:23;;;;;;;0.97;0.77;;;;;;;;;;4969312;28;20237;-67
2024/01/04 12:31:51;;;;;;;2.20;0.50;;;;;;;;;;4969276;28;20231;-68
2024/01/04 12:34:18;;;;;;;0.93;0.70;;;;;;;;;;4968364;28;20210;-68
2024/01/04 12:36:45;;;;;;;2.30;0.60;;;;;;;;;;4968945;28;20258;-67
2024/01/04 12:39:14;;;;;;;1.57;0.50;;;;;;;;;;4969467;28;20221;-67
2024/01/04 12:41:46;;;;;;;1.07;0.50;;;;;;;;;;4968896;28;20210;-66
2024/01/04 12:44:14;;;;;;;3.47;0.50;;;;;;;;;;4969142;28;20282;-68
2024/01/04 12:46:43;;;;;;;3.27;0.40;;;;;;;;;;4969289;28;20207;-67
2024/01/04 12:49:10;;;;;;;2.43;0.40;;;;;;;;;;4968694;28;20309;-68
2024/01/04 12:51:39;;;;;;;2.27;0.40;;;;;;;;;;4969198;28;20298;-68
2024/01/04 12:54:06;;;;;;;0.97;0.30;;;;;;;;;;4968705;28;20221;-68
2024/01/04 12:56:35;;;;;;;0.90;0.40;;;;;;;;;;4969615;28;20238;-68
2024/01/04 12:59:04;;;;;;;1.30;0.43;;;;;;;;;;4969234;28;20222;-67
2024/01/04 13:01:31;;;;;;;2.27;0.97;;;;;;;;;;4968525;28;20222;-69
2024/01/04 13:03:59;;;;;;;1.17;0.50;;;;;;;;;;4966996;28;20264;-68
2024/01/04 13:06:26;;;;;;;1.80;0.63;;;;;;;;;;4967998;28;20207;-68
2024/01/04 13:08:54;;;;;;;1.80;0.70;;;;;;;;;;4968900;28;20230;-68
2024/01/04 13:11:22;;;;;;;3.67;0.70;;;;;;;;;;4968680;28;20211;-67
2024/01/04 13:13:50;;;;;;;1.37;0.50;;;;;;;;;;4962660;28;20621;-70
2024/01/04 13:16:18;;;;;;;3.40;0.80;;;;;;;;;;4968449;28;20237;-67
2024/01/04 13:18:45;;;;;;;1.80;0.70;;;;;;;;;;4968021;28;20253;-65
2024/01/04 13:21:12;;;;;;;2.80;0.50;;;;;;;;;;4968057;28;20230;-65
2024/01/04 13:23:39;;;;;;;1.50;0.60;;;;;;;;;;4967165;28;20234;-68
2024/01/04 13:26:08;;;;;;;6.77;1.30;;;;;;;;;;4968004;28;20202;-69
2024/01/04 13:28:36;;;;;;;1.83;0.40;;;;;;;;;;4968865;28;20218;-67
2024/01/04 13:31:05;;;;;;;2.13;0.73;;;;;;;;;;4966813;28;20222;-66
2024/01/04 13:33:32;;;;;;;3.10;0.77;;;;;;;;;;4967073;28;20298;-67
2024/01/04 13:36:00;;;;;;;3.03;0.63;;;;;;;;;;4966811;28;20866;-67
2024/01/04 13:38:27;;;;;;;2.37;0.60;;;;;;;;;;4968607;28;20743;-67
2024/01/04 13:40:54;;;;;;;1.90;0.57;;;;;;;;;;4968344;28;20233;-67
2024/01/04 13:43:21;;;;;;;2.83;0.53;;;;;;;;;;4966079;28;20943;-66
2024/01/04 13:45:51;;;;;;;2.40;0.60;;;;;;;;;;4966129;28;20677;-63
2024/01/04 13:48:19;;;;;;;3.70;0.70;;;;;;;;;;4967916;28;20211;-65
2024/01/04 13:50:46;;;;;;;2.07;0.50;;;;;;;;;;4967649;28;20707;-65
2024/01/04 13:53:13;;;;;;;1.90;0.50;;;;;;;;;;4964511;28;20214;-65
2024/01/04 13:55:40;;;;;;;5.03;0.53;;;;;;;;;;4968487;28;20234;-67
2024/01/04 13:58:08;;;;;;;3.50;0.50;;;;;;;;;;4968170;28;20636;-64
2024/01/04 14:00:35;;;;;;;2.70;0.77;;;;;;;;;;4967957;28;20861;-68
2024/01/04 14:03:02;;;;;;;3.50;0.50;;;;;;;;;;4965853;28;20210;-66
2024/01/04 14:05:31;;;;;;;1.80;0.90;;;;;;;;;;4968137;28;20222;-67
2024/01/04 14:07:58;;;;;;;1.57;0.50;;;;;;;;;;4968135;28;20207;-67
2024/01/04 14:10:25;;;;;;;1.97;0.50;;;;;;;;;;4967906;28;20217;-68
2024/01/04 14:12:52;;;;;;;3.10;0.50;;;;;;;;;;4967618;28;20217;-69
2024/01/04 14:15:22;;;;;;;3.00;0.80;;;;;;;;;;4967785;28;20214;-67
2024/01/04 14:17:49;;;;;;;0.77;0.60;;;;;;;;;;4967789;28;20204;-68
2024/01/04 14:20:18;;;;;;;3.03;0.77;;;;;;;;;;4967383;28;20214;-67
2024/01/04 14:22:46;;;;;;;4.93;0.50;;;;;;;;;;4965508;28;20222;-68
2024/01/04 14:25:14;;;;;;;1.43;0.73;;;;;;;;;;4965780;28;20297;-67
2024/01/04 14:27:43;;;;;;;2.83;0.50;;;;;;;;;;4966283;28;20289;-67
2024/01/04 14:30:11;;;;;;;0.83;0.70;;;;;;;;;;4965771;28;20321;-67
2024/01/04 14:32:38;;;;;;;3.97;1.03;;;;;;;;;;4964614;28;20210;-67
2024/01/04 14:35:05;;;;;;;4.43;0.80;;;;;;;;;;4962442;28;20210;-68
2024/01/04 14:37:33;;;;;;;2.27;0.80;;;;;;;;;;4964983;28;20222;-68
2024/01/04 14:40:01;;;;;;;3.40;0.50;;;;;;;;;;4966726;28;20586;-68
2024/01/04 14:42:28;;;;;;;1.70;0.60;;;;;;;;;;4962240;28;20265;-68
2024/01/04 14:44:56;;;;;;;3.20;0.70;;;;;;;;;;4963022;28;20911;-70